createdAt,value
2019-02-16T00:01:14.859Z,1.77
2019-02-16T00:03:45.928Z,1.60
2019-02-16T00:06:17.017Z,1.52
2019-02-16T00:08:48.239Z,1.62
2019-02-16T00:11:19.710Z,1.58
2019-02-16T00:13:50.808Z,1.45
2019-02-16T00:16:21.795Z,1.39
2019-02-16T00:18:52.889Z,1.39
2019-02-16T00:21:24.008Z,1.38
2019-02-16T00:23:55.225Z,1.46
2019-02-16T00:26:26.436Z,1.40
2019-02-16T00:28:57.420Z,1.43
2019-02-16T00:31:28.871Z,1.45
2019-02-16T00:34:02.261Z,1.48
2019-02-16T00:36:33.668Z,1.47
2019-02-16T00:39:05.790Z,1.47
2019-02-16T00:41:37.468Z,1.53
2019-02-16T00:44:08.479Z,1.61
2019-02-16T00:46:39.579Z,1.33
2019-02-16T00:49:10.583Z,1.50
2019-02-16T00:51:41.607Z,1.44
2019-02-16T00:54:18.079Z,1.44
2019-02-16T00:56:49.164Z,1.35
2019-02-16T00:59:20.342Z,1.36
2019-02-16T01:01:51.363Z,1.24
2019-02-16T01:04:22.427Z,1.04
2019-02-16T01:06:53.709Z,1.13
2019-02-16T01:09:24.792Z,0.90
2019-02-16T01:11:55.834Z,0.99
2019-02-16T01:14:26.924Z,1.04
2019-02-16T01:16:57.934Z,1.00
2019-02-16T01:19:29.224Z,0.67
2019-02-16T01:22:00.286Z,0.64
2019-02-16T01:24:31.420Z,0.69
2019-02-16T01:27:02.481Z,0.86
2019-02-16T01:29:33.507Z,0.97
2019-02-16T01:32:04.677Z,1.08
2019-02-16T01:34:35.651Z,0.88
2019-02-16T01:37:06.707Z,0.52
2019-02-16T01:39:38.778Z,0.19
2019-02-16T01:42:09.878Z,0.11
2019-02-16T01:44:40.974Z,0.48
2019-02-16T01:47:12.013Z,0.15
2019-02-16T01:49:43.021Z,0.02
2019-02-16T01:52:14.161Z,0.23
2019-02-16T01:54:45.234Z,0.46
2019-02-16T01:57:16.412Z,0.05
2019-02-16T01:59:47.483Z,0.27
2019-02-16T02:02:18.591Z,0.27
2019-02-16T02:04:49.645Z,0.30
2019-02-16T02:07:20.742Z,0.09
2019-02-16T02:09:51.831Z,-0.18
2019-02-16T02:12:23.048Z,-0.29
2019-02-16T02:14:54.053Z,-0.04
2019-02-16T02:17:25.247Z,0.02
2019-02-16T02:19:57.322Z,0.31
2019-02-16T02:22:28.354Z,0.30
2019-02-16T02:24:59.354Z,0.16
2019-02-16T02:27:30.556Z,-0.09
2019-02-16T02:30:01.872Z,-0.07
2019-02-16T02:32:32.968Z,-0.05
2019-02-16T02:35:04.312Z,-0.47
2019-02-16T02:37:35.534Z,-0.33
2019-02-16T02:40:06.728Z,-0.29
2019-02-16T02:42:37.806Z,-0.16
2019-02-16T02:45:10.071Z,-0.18
2019-02-16T02:47:42.044Z,0.08
2019-02-16T02:50:13.059Z,-0.14
2019-02-16T02:52:44.171Z,-0.32
2019-02-16T02:55:15.265Z,-0.72
2019-02-16T02:57:46.358Z,-0.67
2019-02-16T03:00:17.438Z,-0.51
2019-02-16T03:02:48.600Z,-0.38
2019-02-16T03:05:20.972Z,-0.56
2019-02-16T03:07:51.970Z,-0.43
2019-02-16T03:10:23.056Z,-0.37
2019-02-16T03:12:54.080Z,-0.29
2019-02-16T03:15:25.092Z,-0.43
2019-02-16T03:17:56.470Z,-0.25
2019-02-16T03:20:27.557Z,-0.48
2019-02-16T03:23:15.785Z,-0.37
2019-02-16T03:25:53.493Z,-0.30
2019-02-16T03:28:43.604Z,-0.64
2019-02-16T03:31:31.461Z,-0.68
2019-02-16T03:34:08.168Z,-0.90
2019-02-16T03:37:09.896Z,-1.05
2019-02-16T03:39:44.668Z,-0.82
2019-02-16T03:42:15.781Z,-0.64
2019-02-16T03:44:47.112Z,-0.86
2019-02-16T03:47:18.229Z,-1.02
2019-02-16T03:49:49.349Z,-0.96
2019-02-16T03:52:20.364Z,-0.63
2019-02-16T03:54:51.548Z,-0.72
2019-02-16T03:57:22.849Z,-0.59
2019-02-16T03:59:53.982Z,-1.03
2019-02-16T04:02:25.009Z,-0.78
2019-02-16T04:04:56.065Z,-0.47
2019-02-16T04:07:27.076Z,-0.36
2019-02-16T04:09:58.087Z,-0.45
2019-02-16T04:12:29.197Z,-0.83
2019-02-16T04:15:00.320Z,-0.85
2019-02-16T04:17:31.275Z,-0.59
2019-02-16T04:20:02.306Z,-0.70
2019-02-16T04:22:33.370Z,-0.62
2019-02-16T04:25:04.756Z,-0.92
2019-02-16T04:27:35.823Z,-1.13
2019-02-16T04:30:07.422Z,-1.14
2019-02-16T04:32:38.421Z,-1.16
2019-02-16T04:35:09.603Z,-0.84
2019-02-16T04:37:40.707Z,-0.82
2019-02-16T04:40:11.907Z,-0.87
2019-02-16T04:42:42.988Z,-1.06
2019-02-16T04:45:14.186Z,-1.23
2019-02-16T04:47:45.354Z,-1.36
2019-02-16T04:50:16.455Z,-1.26
2019-02-16T04:52:47.466Z,-1.06
2019-02-16T04:55:18.553Z,-0.95
2019-02-16T04:57:49.633Z,-1.00
2019-02-16T05:00:20.686Z,-1.06
2019-02-16T05:02:51.779Z,-0.86
2019-02-16T05:05:23.757Z,-0.68
2019-02-16T05:07:54.804Z,-0.78
2019-02-16T05:10:25.930Z,-1.07
2019-02-16T05:12:57.031Z,-1.19
2019-02-16T05:15:28.140Z,-1.11
2019-02-16T05:17:59.140Z,-1.12
2019-02-16T05:20:30.155Z,-1.16
2019-02-16T05:23:01.254Z,-1.36
2019-02-16T05:25:32.278Z,-1.10
2019-02-16T05:28:03.592Z,-1.07
2019-02-16T05:30:34.720Z,-1.26
2019-02-16T05:33:05.839Z,-1.35
2019-02-16T05:35:36.954Z,-1.36
2019-02-16T05:38:08.053Z,-1.41
2019-02-16T05:40:39.153Z,-1.31
2019-02-16T05:43:10.325Z,-1.28
2019-02-16T05:45:41.357Z,-1.40
2019-02-16T05:48:12.460Z,-1.48
2019-02-16T05:50:43.526Z,-1.53
2019-02-16T05:53:15.510Z,-1.34
2019-02-16T05:55:46.623Z,-1.52
2019-02-16T05:58:17.700Z,-1.70
2019-02-16T06:00:48.905Z,-1.63
2019-02-16T06:03:20.089Z,-1.51
2019-02-16T06:05:51.599Z,-1.36
2019-02-16T06:08:22.598Z,-1.26
2019-02-16T06:10:53.628Z,-1.15
2019-02-16T06:13:24.806Z,-1.52
2019-02-16T06:15:55.981Z,-1.45
2019-02-16T06:18:27.138Z,-1.70
2019-02-16T06:20:58.244Z,-1.71
2019-02-16T06:23:29.260Z,-1.66
2019-02-16T06:26:00.365Z,-1.73
2019-02-16T06:28:31.454Z,-1.73
2019-02-16T06:31:02.512Z,-1.67
2019-02-16T06:33:33.600Z,-1.73
2019-02-16T06:36:09.457Z,-1.66
2019-02-16T06:38:40.528Z,-1.65
2019-02-16T06:41:11.566Z,-1.55
2019-02-16T06:43:43.628Z,-1.53
2019-02-16T06:46:14.653Z,-1.48
2019-02-16T06:48:45.632Z,-1.60
2019-02-16T06:51:16.665Z,-1.53
2019-02-16T06:53:47.741Z,-1.53
2019-02-16T06:56:37.823Z,-1.49
2019-02-16T06:59:09.144Z,-1.35
2019-02-16T07:01:40.164Z,-1.26
2019-02-16T07:04:11.431Z,-1.32
2019-02-16T07:06:42.589Z,-1.31
2019-02-16T07:09:13.727Z,-1.19
2019-02-16T07:11:44.811Z,-1.18
2019-02-16T07:14:15.901Z,-1.03
2019-02-16T07:16:55.775Z,-0.91
2019-02-16T07:19:32.992Z,-0.73
2019-02-16T07:22:04.225Z,-0.77
2019-02-16T07:24:35.302Z,-0.74
2019-02-16T07:27:06.459Z,-0.64
2019-02-16T07:29:37.442Z,-0.57
2019-02-16T07:32:08.514Z,-0.50
2019-02-16T07:34:39.581Z,-0.39
2019-02-16T07:37:10.611Z,-0.25
2019-02-16T07:39:41.692Z,-0.28
2019-02-16T07:42:12.848Z,-0.28
2019-02-16T07:45:12.160Z,-0.30
2019-02-16T07:48:07.180Z,-0.02
2019-02-16T07:50:54.286Z,0.39
2019-02-16T07:53:44.368Z,0.77
2019-02-16T07:56:26.173Z,0.84
2019-02-16T07:59:31.318Z,1.18
2019-02-16T08:02:27.218Z,1.37
2019-02-16T08:05:03.835Z,1.35
2019-02-16T08:07:50.106Z,1.48
2019-02-16T08:10:49.108Z,1.57
2019-02-16T08:13:34.070Z,1.80
2019-02-16T08:16:24.154Z,2.09
2019-02-16T08:19:11.802Z,2.10
2019-02-16T08:21:54.024Z,2.21
2019-02-16T08:24:41.947Z,2.23
2019-02-16T08:27:27.638Z,2.21
2019-02-16T08:30:23.672Z,2.42
2019-02-16T08:33:07.491Z,2.43
2019-02-16T08:35:56.143Z,2.48
2019-02-16T08:38:37.012Z,2.93
2019-02-16T08:41:32.861Z,2.96
2019-02-16T08:44:11.987Z,3.17
2019-02-16T08:47:08.440Z,3.26
2019-02-16T08:50:10.521Z,3.08
2019-02-16T08:52:58.592Z,3.20
2019-02-16T08:55:54.440Z,3.53
2019-02-16T08:59:02.879Z,3.42
2019-02-16T09:01:43.415Z,3.87
2019-02-16T09:04:32.152Z,3.97
2019-02-16T09:07:21.465Z,4.27
2019-02-16T09:10:01.106Z,4.19
2019-02-16T09:12:55.124Z,4.38
2019-02-16T09:15:38.204Z,4.41
2019-02-16T09:18:19.777Z,4.59
2019-02-16T09:21:00.599Z,4.57
2019-02-16T09:23:59.081Z,4.68
2019-02-16T09:26:54.739Z,4.84
2019-02-16T09:29:47.735Z,4.99
2019-02-16T09:32:36.244Z,5.16
2019-02-16T09:35:32.712Z,5.24
2019-02-16T09:38:41.307Z,5.42
2019-02-16T09:41:25.854Z,5.60
2019-02-16T09:44:11.971Z,5.64
2019-02-16T09:47:10.842Z,5.81
2019-02-16T09:49:59.709Z,5.81
2019-02-16T09:52:55.422Z,5.87
2019-02-16T09:55:54.865Z,6.00
2019-02-16T09:58:38.380Z,6.12
2019-02-16T10:01:35.011Z,6.36
2019-02-16T10:04:19.670Z,6.45
2019-02-16T10:07:08.588Z,6.73
2019-02-16T10:09:57.636Z,6.42
2019-02-16T10:12:53.524Z,6.68
2019-02-16T10:15:42.348Z,7.12
2019-02-16T10:18:32.786Z,7.00
2019-02-16T10:21:21.520Z,7.12
2019-02-16T10:24:23.745Z,7.36
2019-02-16T10:27:13.813Z,7.25
2019-02-16T10:29:58.573Z,7.34
2019-02-16T10:32:40.531Z,7.39
2019-02-16T10:35:19.818Z,7.71
2019-02-16T10:38:11.320Z,8.15
2019-02-16T10:41:01.671Z,8.22
2019-02-16T10:43:55.569Z,8.12
2019-02-16T10:46:51.105Z,8.61
2019-02-16T10:49:43.939Z,8.71
2019-02-16T10:52:36.843Z,8.82
2019-02-16T10:55:19.917Z,8.91
2019-02-16T10:58:08.064Z,8.74
2019-02-16T11:01:00.930Z,9.27
2019-02-16T11:03:51.093Z,8.98
2019-02-16T11:06:41.027Z,8.96
2019-02-16T11:09:29.880Z,9.05
2019-02-16T11:12:35.285Z,9.08
2019-02-16T11:15:31.895Z,9.22
2019-02-16T11:18:13.911Z,9.68
2019-02-16T11:21:02.973Z,10.17
2019-02-16T11:23:54.395Z,10.74
2019-02-16T11:26:44.392Z,11.23
2019-02-16T11:29:33.182Z,11.63
2019-02-16T11:32:15.895Z,11.67
2019-02-16T11:34:57.441Z,11.93
2019-02-16T11:37:34.548Z,12.15
2019-02-16T11:40:25.143Z,12.40
2019-02-16T11:43:09.429Z,12.91
2019-02-16T11:45:46.582Z,13.02
2019-02-16T11:48:48.805Z,13.71
2019-02-16T11:51:37.495Z,15.16
2019-02-16T11:54:17.161Z,19.57
2019-02-16T11:57:10.323Z,24.30
2019-02-16T11:59:59.162Z,24.97
2019-02-16T12:02:42.608Z,26.61
2019-02-16T12:05:23.559Z,27.89
2019-02-16T12:08:16.704Z,27.18
2019-02-16T12:11:10.460Z,27.23
2019-02-16T12:13:50.454Z,27.65
2019-02-16T12:16:31.362Z,28.95
2019-02-16T12:19:12.907Z,28.95
2019-02-16T12:21:49.669Z,28.55
2019-02-16T12:24:26.985Z,27.53
2019-02-16T12:27:17.260Z,27.72
2019-02-16T12:29:55.685Z,22.54
2019-02-16T12:32:35.928Z,25.83
2019-02-16T12:35:28.064Z,21.96
2019-02-16T12:38:24.370Z,22.21
2019-02-16T12:41:09.908Z,22.76
2019-02-16T12:43:59.202Z,20.65
2019-02-16T12:46:36.864Z,20.78
2019-02-16T12:49:26.932Z,21.85
2019-02-16T12:52:13.862Z,22.63
2019-02-16T12:54:54.690Z,21.76
2019-02-16T12:57:47.771Z,22.44
2019-02-16T13:00:27.374Z,21.63
2019-02-16T13:03:20.361Z,21.34
2019-02-16T13:06:13.545Z,20.86
2019-02-16T13:09:09.737Z,21.58
2019-02-16T13:12:15.259Z,23.12
2019-02-16T13:15:03.362Z,22.02
2019-02-16T13:18:03.786Z,20.33
2019-02-16T13:20:44.772Z,20.58
2019-02-16T13:23:26.845Z,20.63
2019-02-16T13:26:15.426Z,20.11
2019-02-16T13:28:59.453Z,19.63
2019-02-16T13:31:35.830Z,21.77
2019-02-16T13:34:17.509Z,20.87
2019-02-16T13:37:13.883Z,22.17
2019-02-16T13:42:36.851Z,20.17
2019-02-16T13:45:20.440Z,20.66
2019-02-16T13:47:58.840Z,22.62
2019-02-16T13:50:38.907Z,23.17
2019-02-16T13:53:27.950Z,24.16
2019-02-16T13:56:18.159Z,22.16
2019-02-16T13:59:17.427Z,23.42
2019-02-16T14:02:16.548Z,23.58
2019-02-16T14:05:08.218Z,22.78
2019-02-16T14:08:07.440Z,24.46
2019-02-16T14:10:54.013Z,24.81
2019-02-16T14:13:49.195Z,23.78
2019-02-16T14:16:29.505Z,25.51
2019-02-16T14:19:00.616Z,23.45
2019-02-16T14:21:31.787Z,23.20
2019-02-16T14:24:02.966Z,24.65
2019-02-16T14:26:34.037Z,25.85
2019-02-16T14:29:05.186Z,27.60
2019-02-16T14:31:36.284Z,28.64
2019-02-16T14:34:07.310Z,25.98
2019-02-16T14:36:38.443Z,28.13
2019-02-16T14:39:15.418Z,28.83
2019-02-16T14:41:46.553Z,25.57
2019-02-16T14:44:17.638Z,27.69
2019-02-16T14:46:48.734Z,28.64
2019-02-16T14:49:19.815Z,31.20
2019-02-16T14:51:50.907Z,31.35
2019-02-16T14:54:21.989Z,30.70
2019-02-16T14:56:53.004Z,30.37
2019-02-16T14:59:24.087Z,31.12
2019-02-16T15:01:55.166Z,31.55
2019-02-16T15:04:26.388Z,30.63
2019-02-16T15:06:57.482Z,30.27
2019-02-16T15:09:28.555Z,29.65
2019-02-16T15:11:59.628Z,28.18
2019-02-16T15:14:30.660Z,26.26
2019-02-16T15:17:01.737Z,24.78
2019-02-16T15:19:32.766Z,24.70
2019-02-16T15:22:04.043Z,22.95
2019-02-16T15:24:35.161Z,22.42
2019-02-16T15:27:06.238Z,22.30
2019-02-16T15:29:37.412Z,20.86
2019-02-16T15:32:08.495Z,21.79
2019-02-16T15:34:39.543Z,21.16
2019-02-16T15:37:10.619Z,19.98
2019-02-16T15:39:41.697Z,19.73
2019-02-16T15:42:12.857Z,18.90
2019-02-16T15:44:46.176Z,18.42
2019-02-16T15:47:17.268Z,18.12
2019-02-16T15:49:48.376Z,18.12
2019-02-16T15:52:19.482Z,18.17
2019-02-16T15:54:50.588Z,18.40
2019-02-16T15:57:21.709Z,17.88
2019-02-16T15:59:52.877Z,16.49
2019-02-16T16:02:23.991Z,15.70
2019-02-16T16:04:55.170Z,15.42
2019-02-16T16:07:26.223Z,14.97
2019-02-16T16:10:08.725Z,14.47
2019-02-16T16:12:49.863Z,14.48
2019-02-16T16:15:46.290Z,14.20
2019-02-16T16:18:42.488Z,13.75
2019-02-16T16:21:22.546Z,13.79
2019-02-16T16:24:18.621Z,13.31
2019-02-16T16:27:17.651Z,13.04
2019-02-16T16:30:13.754Z,13.10
2019-02-16T16:33:15.845Z,12.65
2019-02-16T16:35:57.981Z,12.66
2019-02-16T16:38:47.009Z,12.43
2019-02-16T16:41:33.756Z,12.32
2019-02-16T16:44:26.879Z,11.72
2019-02-16T16:47:23.050Z,11.64
2019-02-16T16:50:01.429Z,11.33
2019-02-16T16:52:51.600Z,11.22
2019-02-16T16:55:34.040Z,11.18
2019-02-16T16:58:22.743Z,11.03
2019-02-16T17:01:18.892Z,11.04
2019-02-16T17:04:11.136Z,10.78
2019-02-16T17:07:07.594Z,10.68
2019-02-16T17:09:53.504Z,10.48
2019-02-16T17:13:01.995Z,10.14
2019-02-16T17:15:46.028Z,9.91
2019-02-16T17:18:43.294Z,9.82
2019-02-16T17:21:31.982Z,9.86
2019-02-16T17:24:22.072Z,9.96
2019-02-16T17:27:30.610Z,9.81
2019-02-16T17:30:29.680Z,9.69
2019-02-16T17:33:29.176Z,9.14
2019-02-16T17:36:13.744Z,9.23
2019-02-16T17:39:02.180Z,9.08
2019-02-16T17:41:53.285Z,8.94
2019-02-16T17:44:52.388Z,9.01
2019-02-16T17:47:37.849Z,8.80
2019-02-16T17:50:19.012Z,8.31
2019-02-16T17:53:08.166Z,8.35
2019-02-16T17:55:59.249Z,8.22
2019-02-16T17:58:42.009Z,8.15
2019-02-16T18:01:40.977Z,8.09
2019-02-16T18:04:49.484Z,8.10
2019-02-16T18:07:42.409Z,8.12
2019-02-16T18:10:27.163Z,8.26
2019-02-16T18:13:20.058Z,8.22
2019-02-16T18:15:56.566Z,7.88
2019-02-16T18:18:49.658Z,7.62
2019-02-16T18:21:54.789Z,7.54
2019-02-16T18:24:53.554Z,7.68
2019-02-16T18:27:40.583Z,7.68
2019-02-16T18:30:30.050Z,7.62
2019-02-16T18:33:18.872Z,7.28
2019-02-16T18:36:08.827Z,7.09
2019-02-16T18:38:48.681Z,6.97
2019-02-16T18:41:37.662Z,6.67
2019-02-16T18:44:35.391Z,6.54
2019-02-16T18:47:24.396Z,6.47
2019-02-16T18:50:17.483Z,6.52
2019-02-16T18:53:00.382Z,6.46
2019-02-16T18:56:02.949Z,6.58
2019-02-16T18:58:51.718Z,6.56
2019-02-16T19:01:40.783Z,6.20
2019-02-16T19:04:29.831Z,6.14
2019-02-16T19:07:10.032Z,6.21
2019-02-16T19:09:59.608Z,6.38
2019-02-16T19:12:48.665Z,6.33
2019-02-16T19:15:38.863Z,6.06
2019-02-16T19:18:18.055Z,6.10
2019-02-16T19:20:55.895Z,5.65
2019-02-16T19:23:36.043Z,5.72
2019-02-16T19:26:17.435Z,5.99
2019-02-16T19:29:10.663Z,5.40
2019-02-16T19:31:59.736Z,5.21
2019-02-16T19:34:52.397Z,5.14
2019-02-16T19:37:42.239Z,5.15
2019-02-16T19:40:31.061Z,5.16
2019-02-16T19:43:19.704Z,5.27
2019-02-16T19:46:18.792Z,5.25
2019-02-16T19:49:14.674Z,5.13
2019-02-16T19:52:16.887Z,4.86
2019-02-16T19:54:58.776Z,4.81
2019-02-16T19:57:42.128Z,4.74
2019-02-16T20:00:31.323Z,4.74
2019-02-16T20:03:29.877Z,4.89
2019-02-16T20:06:19.975Z,4.76
2019-02-16T20:09:10.077Z,4.83
2019-02-16T20:12:06.162Z,4.89
2019-02-16T20:14:45.631Z,4.53
2019-02-16T20:17:40.398Z,4.43
2019-02-16T20:20:23.217Z,4.26
2019-02-16T20:23:19.082Z,4.18
2019-02-16T20:26:07.005Z,4.47
2019-02-16T20:28:52.477Z,4.33
2019-02-16T20:32:01.354Z,4.35
2019-02-16T20:34:39.689Z,4.45
2019-02-16T20:37:19.855Z,4.35
2019-02-16T20:40:00.622Z,4.11
2019-02-16T20:42:42.174Z,4.21
2019-02-16T20:45:18.665Z,4.25
2019-02-16T20:48:17.941Z,4.21
2019-02-16T20:51:12.266Z,4.22
2019-02-16T20:53:50.791Z,3.74
2019-02-16T20:56:34.004Z,3.74
2019-02-16T20:59:36.304Z,3.90
2019-02-16T21:02:26.484Z,3.85
2019-02-16T21:05:15.949Z,3.77
2019-02-16T21:08:10.345Z,3.67
2019-02-16T21:10:56.252Z,3.88
2019-02-16T21:13:38.099Z,3.88
2019-02-16T21:16:21.470Z,3.73
2019-02-16T21:19:24.629Z,3.58
2019-02-16T21:22:20.881Z,3.55
2019-02-16T21:25:03.603Z,3.51
2019-02-16T21:27:46.412Z,3.32
2019-02-16T21:30:39.258Z,3.60
2019-02-16T21:33:26.686Z,3.35
2019-02-16T21:36:11.770Z,3.31
2019-02-16T21:39:03.425Z,3.32
2019-02-16T21:42:03.581Z,3.40
2019-02-16T21:45:02.658Z,3.18
2019-02-16T21:47:50.845Z,3.41
2019-02-16T21:51:01.738Z,3.46
2019-02-16T21:53:41.785Z,3.31
2019-02-16T21:56:24.293Z,3.39
2019-02-16T21:59:07.403Z,3.26
2019-02-16T22:01:56.731Z,3.09
2019-02-16T22:04:49.825Z,3.24
2019-02-16T22:07:38.902Z,2.98
2019-02-16T22:10:38.011Z,3.15
2019-02-16T22:13:09.213Z,3.10
2019-02-16T22:15:40.414Z,3.11
2019-02-16T22:18:11.517Z,3.01
2019-02-16T22:20:42.683Z,3.09
2019-02-16T22:23:13.870Z,3.18
2019-02-16T22:25:45.036Z,2.78
2019-02-16T22:28:18.654Z,2.74
2019-02-16T22:30:49.017Z,2.76
2019-02-16T22:33:20.084Z,2.83
2019-02-16T22:35:51.244Z,3.03
2019-02-16T22:38:22.401Z,3.00
2019-02-16T22:40:53.381Z,2.90
2019-02-16T22:43:24.503Z,2.65
2019-02-16T22:45:55.742Z,2.75
2019-02-16T22:48:26.980Z,2.75
2019-02-16T22:50:58.049Z,2.99
2019-02-16T22:53:29.173Z,3.00
2019-02-16T22:56:00.325Z,2.90
2019-02-16T22:58:31.409Z,2.95
2019-02-16T23:01:02.746Z,2.85
2019-02-16T23:03:35.576Z,2.87
2019-02-16T23:06:06.895Z,2.90
2019-02-16T23:08:38.032Z,2.85
2019-02-16T23:11:09.099Z,2.79
2019-02-16T23:13:40.403Z,2.77
2019-02-16T23:16:11.567Z,2.80
2019-02-16T23:18:42.767Z,2.57
2019-02-16T23:21:13.908Z,2.61
2019-02-16T23:23:45.101Z,2.73
2019-02-16T23:26:16.275Z,2.71
2019-02-16T23:28:47.430Z,2.63
2019-02-16T23:31:18.475Z,2.67
2019-02-16T23:33:49.477Z,2.83
2019-02-16T23:36:20.539Z,2.65
2019-02-16T23:38:51.605Z,2.44
2019-02-16T23:41:22.675Z,1.99
2019-02-16T23:43:53.715Z,2.22
2019-02-16T23:46:24.727Z,2.08
2019-02-16T23:48:55.856Z,1.96
2019-02-16T23:51:26.863Z,2.16
2019-02-16T23:53:57.908Z,2.06
2019-02-16T23:56:29.190Z,2.16
2019-02-16T23:59:00.275Z,1.95
